sensor_id;sensor_type;location;lat;lon;timestamp;P1;durP1;ratioP1;P2;durP2;ratioP2
81180;SDS011;70650;51.408;7.132;2023-07-02T00:01:49;8.15;;;2.50;;
81180;SDS011;70650;51.408;7.132;2023-07-02T00:04:15;8.10;;;2.53;;
81180;SDS011;70650;51.408;7.132;2023-07-02T00:06:44;5.97;;;2.33;;
81180;SDS011;70650;51.408;7.132;2023-07-02T00:09:13;6.10;;;2.13;;
81180;SDS011;70650;51.408;7.132;2023-07-02T00:11:40;7.45;;;2.40;;
81180;SDS011;70650;51.408;7.132;2023-07-02T00:14:07;6.75;;;2.05;;
81180;SDS011;70650;51.408;7.132;2023-07-02T00:16:34;6.68;;;2.10;;
81180;SDS011;70650;51.408;7.132;2023-07-02T00:19:00;8.63;;;2.70;;
81180;SDS011;70650;51.408;7.132;2023-07-02T00:21:26;7.27;;;2.50;;
81180;SDS011;70650;51.408;7.132;2023-07-02T00:23:52;7.55;;;2.58;;
81180;SDS011;70650;51.408;7.132;2023-07-02T00:26:18;7.18;;;2.53;;
81180;SDS011;70650;51.408;7.132;2023-07-02T00:28:43;6.10;;;2.17;;
81180;SDS011;70650;51.408;7.132;2023-07-02T00:31:08;6.67;;;2.27;;
81180;SDS011;70650;51.408;7.132;2023-07-02T00:33:34;6.97;;;2.40;;
81180;SDS011;70650;51.408;7.132;2023-07-02T00:35:59;6.50;;;2.40;;
81180;SDS011;70650;51.408;7.132;2023-07-02T00:38:25;6.97;;;2.55;;
81180;SDS011;70650;51.408;7.132;2023-07-02T00:40:51;7.32;;;2.10;;
81180;SDS011;70650;51.408;7.132;2023-07-02T00:43:16;5.80;;;2.03;;
81180;SDS011;70650;51.408;7.132;2023-07-02T00:45:41;6.57;;;2.20;;
81180;SDS011;70650;51.408;7.132;2023-07-02T00:48:07;6.60;;;2.30;;
81180;SDS011;70650;51.408;7.132;2023-07-02T00:50:32;9.63;;;2.58;;
81180;SDS011;70650;51.408;7.132;2023-07-02T00:52:58;7.28;;;2.38;;
81180;SDS011;70650;51.408;7.132;2023-07-02T00:55:23;7.50;;;2.25;;
81180;SDS011;70650;51.408;7.132;2023-07-02T00:57:49;7.10;;;2.53;;
81180;SDS011;70650;51.408;7.132;2023-07-02T01:00:15;6.90;;;2.30;;
81180;SDS011;70650;51.408;7.132;2023-07-02T01:02:41;7.85;;;2.63;;
81180;SDS011;70650;51.408;7.132;2023-07-02T01:05:13;8.52;;;2.90;;
81180;SDS011;70650;51.408;7.132;2023-07-02T01:10:05;6.63;;;2.20;;
81180;SDS011;70650;51.408;7.132;2023-07-02T01:12:31;8.00;;;2.70;;
81180;SDS011;70650;51.408;7.132;2023-07-02T01:14:58;9.98;;;2.58;;
81180;SDS011;70650;51.408;7.132;2023-07-02T01:17:26;7.30;;;2.47;;
81180;SDS011;70650;51.408;7.132;2023-07-02T01:19:54;7.53;;;2.60;;
81180;SDS011;70650;51.408;7.132;2023-07-02T01:22:24;7.68;;;2.78;;
81180;SDS011;70650;51.408;7.132;2023-07-02T01:24:52;8.63;;;2.53;;
81180;SDS011;70650;51.408;7.132;2023-07-02T01:27:18;6.88;;;2.25;;
81180;SDS011;70650;51.408;7.132;2023-07-02T01:29:44;5.95;;;2.47;;
81180;SDS011;70650;51.408;7.132;2023-07-02T01:32:15;9.38;;;2.63;;
81180;SDS011;70650;51.408;7.132;2023-07-02T01:34:40;8.27;;;2.83;;
81180;SDS011;70650;51.408;7.132;2023-07-02T01:37:06;7.47;;;2.33;;
81180;SDS011;70650;51.408;7.132;2023-07-02T01:39:31;6.85;;;2.28;;
81180;SDS011;70650;51.408;7.132;2023-07-02T01:42:13;6.88;;;2.28;;
81180;SDS011;70650;51.408;7.132;2023-07-02T01:44:43;8.02;;;2.55;;
81180;SDS011;70650;51.408;7.132;2023-07-02T01:47:09;8.70;;;2.90;;
81180;SDS011;70650;51.408;7.132;2023-07-02T01:49:34;9.63;;;2.72;;
81180;SDS011;70650;51.408;7.132;2023-07-02T01:52:01;8.30;;;2.83;;
81180;SDS011;70650;51.408;7.132;2023-07-02T01:54:27;7.82;;;2.63;;
81180;SDS011;70650;51.408;7.132;2023-07-02T01:56:53;10.00;;;3.20;;
81180;SDS011;70650;51.408;7.132;2023-07-02T01:59:19;9.10;;;3.35;;
81180;SDS011;70650;51.408;7.132;2023-07-02T02:01:44;8.95;;;2.83;;
81180;SDS011;70650;51.408;7.132;2023-07-02T02:04:10;13.35;;;3.05;;
81180;SDS011;70650;51.408;7.132;2023-07-02T02:06:37;10.48;;;3.10;;
81180;SDS011;70650;51.408;7.132;2023-07-02T02:09:03;9.27;;;2.78;;
81180;SDS011;70650;51.408;7.132;2023-07-02T02:11:33;10.15;;;2.63;;
81180;SDS011;70650;51.408;7.132;2023-07-02T02:13:59;8.55;;;2.78;;
81180;SDS011;70650;51.408;7.132;2023-07-02T02:16:27;11.15;;;3.10;;
81180;SDS011;70650;51.408;7.132;2023-07-02T02:18:53;12.85;;;3.13;;
81180;SDS011;70650;51.408;7.132;2023-07-02T02:21:19;10.25;;;3.53;;
81180;SDS011;70650;51.408;7.132;2023-07-02T02:23:45;11.23;;;2.92;;
81180;SDS011;70650;51.408;7.132;2023-07-02T02:26:10;11.38;;;3.88;;
81180;SDS011;70650;51.408;7.132;2023-07-02T02:28:36;13.33;;;3.40;;
81180;SDS011;70650;51.408;7.132;2023-07-02T02:31:01;11.95;;;3.85;;
81180;SDS011;70650;51.408;7.132;2023-07-02T02:33:27;16.33;;;4.15;;
81180;SDS011;70650;51.408;7.132;2023-07-02T02:35:52;10.47;;;3.70;;
81180;SDS011;70650;51.408;7.132;2023-07-02T02:38:17;9.10;;;3.03;;
81180;SDS011;70650;51.408;7.132;2023-07-02T02:40:43;12.70;;;3.42;;
81180;SDS011;70650;51.408;7.132;2023-07-02T02:43:08;12.80;;;4.28;;
81180;SDS011;70650;51.408;7.132;2023-07-02T02:45:33;12.27;;;3.90;;
81180;SDS011;70650;51.408;7.132;2023-07-02T02:47:59;11.73;;;4.10;;
81180;SDS011;70650;51.408;7.132;2023-07-02T02:50:25;13.17;;;4.30;;
81180;SDS011;70650;51.408;7.132;2023-07-02T02:52:51;13.13;;;4.35;;
81180;SDS011;70650;51.408;7.132;2023-07-02T02:55:16;17.23;;;4.72;;
81180;SDS011;70650;51.408;7.132;2023-07-02T02:57:41;13.68;;;4.60;;
81180;SDS011;70650;51.408;7.132;2023-07-02T03:00:08;13.10;;;4.32;;
81180;SDS011;70650;51.408;7.132;2023-07-02T03:02:34;14.98;;;4.43;;
81180;SDS011;70650;51.408;7.132;2023-07-02T03:05:02;17.00;;;4.80;;
81180;SDS011;70650;51.408;7.132;2023-07-02T03:07:27;15.18;;;5.13;;
81180;SDS011;70650;51.408;7.132;2023-07-02T03:09:53;12.15;;;4.07;;
81180;SDS011;70650;51.408;7.132;2023-07-02T03:12:19;14.57;;;5.32;;
81180;SDS011;70650;51.408;7.132;2023-07-02T03:14:44;14.77;;;5.00;;
81180;SDS011;70650;51.408;7.132;2023-07-02T03:17:09;15.00;;;5.28;;
81180;SDS011;70650;51.408;7.132;2023-07-02T03:19:35;14.43;;;5.33;;
81180;SDS011;70650;51.408;7.132;2023-07-02T03:22:00;19.42;;;5.70;;
81180;SDS011;70650;51.408;7.132;2023-07-02T03:24:25;13.93;;;4.80;;
81180;SDS011;70650;51.408;7.132;2023-07-02T03:26:51;13.20;;;4.67;;
81180;SDS011;70650;51.408;7.132;2023-07-02T03:29:16;13.77;;;5.07;;
81180;SDS011;70650;51.408;7.132;2023-07-02T03:31:41;15.63;;;5.00;;
81180;SDS011;70650;51.408;7.132;2023-07-02T03:34:07;13.40;;;4.50;;
81180;SDS011;70650;51.408;7.132;2023-07-02T03:36:34;16.30;;;5.68;;
81180;SDS011;70650;51.408;7.132;2023-07-02T03:39:00;16.23;;;5.25;;
81180;SDS011;70650;51.408;7.132;2023-07-02T03:41:25;20.83;;;5.43;;
81180;SDS011;70650;51.408;7.132;2023-07-02T03:43:51;15.48;;;5.35;;
81180;SDS011;70650;51.408;7.132;2023-07-02T03:46:16;14.73;;;5.23;;
81180;SDS011;70650;51.408;7.132;2023-07-02T03:48:41;13.60;;;5.27;;
81180;SDS011;70650;51.408;7.132;2023-07-02T03:51:07;14.95;;;5.78;;
81180;SDS011;70650;51.408;7.132;2023-07-02T03:53:32;17.27;;;5.30;;
81180;SDS011;70650;51.408;7.132;2023-07-02T03:55:58;15.90;;;5.87;;
81180;SDS011;70650;51.408;7.132;2023-07-02T03:58:23;17.73;;;5.57;;
81180;SDS011;70650;51.408;7.132;2023-07-02T04:00:48;13.13;;;5.38;;
81180;SDS011;70650;51.408;7.132;2023-07-02T04:03:14;15.48;;;5.47;;
81180;SDS011;70650;51.408;7.132;2023-07-02T04:05:41;15.25;;;5.78;;
81180;SDS011;70650;51.408;7.132;2023-07-02T04:08:06;13.68;;;5.32;;
81180;SDS011;70650;51.408;7.132;2023-07-02T04:10:31;16.17;;;5.63;;
81180;SDS011;70650;51.408;7.132;2023-07-02T04:12:56;19.43;;;5.80;;
81180;SDS011;70650;51.408;7.132;2023-07-02T04:15:22;16.67;;;6.07;;
81180;SDS011;70650;51.408;7.132;2023-07-02T04:17:49;18.77;;;7.10;;
81180;SDS011;70650;51.408;7.132;2023-07-02T04:20:16;19.27;;;6.05;;
81180;SDS011;70650;51.408;7.132;2023-07-02T04:22:43;19.00;;;6.20;;
81180;SDS011;70650;51.408;7.132;2023-07-02T04:25:09;16.83;;;5.70;;
81180;SDS011;70650;51.408;7.132;2023-07-02T04:27:35;17.03;;;5.90;;
81180;SDS011;70650;51.408;7.132;2023-07-02T04:30:00;14.27;;;5.80;;
81180;SDS011;70650;51.408;7.132;2023-07-02T04:32:25;16.67;;;6.67;;
81180;SDS011;70650;51.408;7.132;2023-07-02T04:34:50;19.30;;;6.67;;
81180;SDS011;70650;51.408;7.132;2023-07-02T04:37:16;19.20;;;6.50;;
81180;SDS011;70650;51.408;7.132;2023-07-02T04:39:41;17.23;;;6.18;;
81180;SDS011;70650;51.408;7.132;2023-07-02T04:42:06;18.95;;;6.95;;
81180;SDS011;70650;51.408;7.132;2023-07-02T04:44:32;20.63;;;7.50;;
81180;SDS011;70650;51.408;7.132;2023-07-02T04:47:00;18.67;;;6.43;;
81180;SDS011;70650;51.408;7.132;2023-07-02T04:49:26;22.52;;;6.70;;
81180;SDS011;70650;51.408;7.132;2023-07-02T04:51:52;20.48;;;6.60;;
81180;SDS011;70650;51.408;7.132;2023-07-02T04:54:19;17.92;;;6.95;;
81180;SDS011;70650;51.408;7.132;2023-07-02T04:56:46;18.38;;;6.72;;
81180;SDS011;70650;51.408;7.132;2023-07-02T04:59:12;17.10;;;6.30;;
81180;SDS011;70650;51.408;7.132;2023-07-02T05:01:37;20.13;;;7.00;;
81180;SDS011;70650;51.408;7.132;2023-07-02T05:04:04;19.47;;;7.00;;
81180;SDS011;70650;51.408;7.132;2023-07-02T05:06:30;20.45;;;7.82;;
81180;SDS011;70650;51.408;7.132;2023-07-02T05:08:56;22.47;;;7.93;;
81180;SDS011;70650;51.408;7.132;2023-07-02T05:11:21;17.70;;;7.43;;
81180;SDS011;70650;51.408;7.132;2023-07-02T05:13:46;22.67;;;7.20;;
81180;SDS011;70650;51.408;7.132;2023-07-02T05:16:11;21.63;;;7.50;;
81180;SDS011;70650;51.408;7.132;2023-07-02T05:18:39;21.60;;;7.40;;
81180;SDS011;70650;51.408;7.132;2023-07-02T05:21:04;19.58;;;7.13;;
81180;SDS011;70650;51.408;7.132;2023-07-02T05:23:31;20.38;;;7.68;;
81180;SDS011;70650;51.408;7.132;2023-07-02T05:25:56;25.30;;;8.57;;
81180;SDS011;70650;51.408;7.132;2023-07-02T05:28:21;24.87;;;8.03;;
81180;SDS011;70650;51.408;7.132;2023-07-02T05:30:46;21.97;;;8.17;;
81180;SDS011;70650;51.408;7.132;2023-07-02T05:33:12;20.30;;;8.83;;
81180;SDS011;70650;51.408;7.132;2023-07-02T05:35:38;20.10;;;7.38;;
81180;SDS011;70650;51.408;7.132;2023-07-02T05:38:03;19.60;;;7.83;;
81180;SDS011;70650;51.408;7.132;2023-07-02T05:40:28;21.10;;;7.67;;
81180;SDS011;70650;51.408;7.132;2023-07-02T05:42:53;20.27;;;7.83;;
81180;SDS011;70650;51.408;7.132;2023-07-02T05:45:19;22.20;;;8.27;;
81180;SDS011;70650;51.408;7.132;2023-07-02T05:47:44;22.23;;;7.73;;
81180;SDS011;70650;51.408;7.132;2023-07-02T05:50:09;24.13;;;8.67;;
81180;SDS011;70650;51.408;7.132;2023-07-02T05:52:34;24.30;;;8.60;;
81180;SDS011;70650;51.408;7.132;2023-07-02T05:55:00;20.63;;;8.50;;
81180;SDS011;70650;51.408;7.132;2023-07-02T05:57:25;22.27;;;7.37;;
81180;SDS011;70650;51.408;7.132;2023-07-02T05:59:50;25.20;;;8.33;;
81180;SDS011;70650;51.408;7.132;2023-07-02T06:02:15;22.83;;;8.40;;
81180;SDS011;70650;51.408;7.132;2023-07-02T06:04:41;23.10;;;8.32;;
81180;SDS011;70650;51.408;7.132;2023-07-02T06:07:06;24.10;;;8.40;;
81180;SDS011;70650;51.408;7.132;2023-07-02T06:09:32;23.48;;;9.60;;
81180;SDS011;70650;51.408;7.132;2023-07-02T06:11:57;20.60;;;8.30;;
81180;SDS011;70650;51.408;7.132;2023-07-02T06:14:23;23.05;;;8.93;;
81180;SDS011;70650;51.408;7.132;2023-07-02T06:16:50;22.38;;;8.80;;
81180;SDS011;70650;51.408;7.132;2023-07-02T06:19:16;23.63;;;7.93;;
81180;SDS011;70650;51.408;7.132;2023-07-02T06:21:41;21.37;;;8.23;;
81180;SDS011;70650;51.408;7.132;2023-07-02T06:24:06;22.17;;;8.07;;
81180;SDS011;70650;51.408;7.132;2023-07-02T06:26:32;25.17;;;9.68;;
81180;SDS011;70650;51.408;7.132;2023-07-02T06:28:58;29.07;;;8.63;;
81180;SDS011;70650;51.408;7.132;2023-07-02T06:31:24;22.75;;;8.80;;
81180;SDS011;70650;51.408;7.132;2023-07-02T06:33:49;22.93;;;8.87;;
81180;SDS011;70650;51.408;7.132;2023-07-02T06:36:14;23.70;;;7.50;;
81180;SDS011;70650;51.408;7.132;2023-07-02T06:38:40;23.65;;;7.72;;
81180;SDS011;70650;51.408;7.132;2023-07-02T06:41:05;21.15;;;8.40;;
81180;SDS011;70650;51.408;7.132;2023-07-02T06:43:31;21.83;;;8.80;;
81180;SDS011;70650;51.408;7.132;2023-07-02T06:45:56;23.20;;;7.87;;
81180;SDS011;70650;51.408;7.132;2023-07-02T06:48:21;23.60;;;7.27;;
81180;SDS011;70650;51.408;7.132;2023-07-02T06:50:47;21.60;;;7.57;;
81180;SDS011;70650;51.408;7.132;2023-07-02T06:53:12;26.77;;;8.30;;
81180;SDS011;70650;51.408;7.132;2023-07-02T06:55:38;17.02;;;6.70;;
81180;SDS011;70650;51.408;7.132;2023-07-02T06:58:06;20.23;;;6.73;;
81180;SDS011;70650;51.408;7.132;2023-07-02T07:00:32;21.83;;;7.25;;
81180;SDS011;70650;51.408;7.132;2023-07-02T07:03:01;20.13;;;7.20;;
81180;SDS011;70650;51.408;7.132;2023-07-02T07:05:29;18.50;;;6.07;;
81180;SDS011;70650;51.408;7.132;2023-07-02T07:07:55;20.00;;;6.78;;
81180;SDS011;70650;51.408;7.132;2023-07-02T07:10:21;21.17;;;7.43;;
81180;SDS011;70650;51.408;7.132;2023-07-02T07:12:46;22.23;;;6.70;;
81180;SDS011;70650;51.408;7.132;2023-07-02T07:15:11;19.27;;;6.90;;
81180;SDS011;70650;51.408;7.132;2023-07-02T07:17:36;20.35;;;6.72;;
81180;SDS011;70650;51.408;7.132;2023-07-02T07:20:02;18.93;;;6.93;;
81180;SDS011;70650;51.408;7.132;2023-07-02T07:22:29;20.13;;;6.38;;
81180;SDS011;70650;51.408;7.132;2023-07-02T07:24:55;19.92;;;7.22;;
81180;SDS011;70650;51.408;7.132;2023-07-02T07:27:20;18.70;;;7.07;;
81180;SDS011;70650;51.408;7.132;2023-07-02T07:29:47;19.10;;;7.72;;
81180;SDS011;70650;51.408;7.132;2023-07-02T07:32:12;17.90;;;6.73;;
81180;SDS011;70650;51.408;7.132;2023-07-02T07:34:37;20.50;;;7.17;;
81180;SDS011;70650;51.408;7.132;2023-07-02T07:37:02;16.97;;;6.40;;
81180;SDS011;70650;51.408;7.132;2023-07-02T07:39:28;18.90;;;6.57;;
81180;SDS011;70650;51.408;7.132;2023-07-02T07:41:53;18.80;;;6.20;;
81180;SDS011;70650;51.408;7.132;2023-07-02T07:44:18;18.00;;;5.57;;
81180;SDS011;70650;51.408;7.132;2023-07-02T07:46:44;16.37;;;6.23;;
81180;SDS011;70650;51.408;7.132;2023-07-02T07:49:09;16.27;;;5.97;;
81180;SDS011;70650;51.408;7.132;2023-07-02T07:51:34;18.30;;;6.43;;
81180;SDS011;70650;51.408;7.132;2023-07-02T07:54:01;19.25;;;6.30;;
81180;SDS011;70650;51.408;7.132;2023-07-02T07:56:27;14.90;;;5.65;;
81180;SDS011;70650;51.408;7.132;2023-07-02T07:58:52;16.67;;;5.60;;
81180;SDS011;70650;51.408;7.132;2023-07-02T08:01:17;18.53;;;5.47;;
81180;SDS011;70650;51.408;7.132;2023-07-02T08:03:42;14.67;;;5.03;;
81180;SDS011;70650;51.408;7.132;2023-07-02T08:06:08;16.67;;;5.43;;
81180;SDS011;70650;51.408;7.132;2023-07-02T08:08:33;13.67;;;5.50;;
81180;SDS011;70650;51.408;7.132;2023-07-02T08:10:59;15.70;;;5.95;;
81180;SDS011;70650;51.408;7.132;2023-07-02T08:13:24;18.45;;;6.10;;
81180;SDS011;70650;51.408;7.132;2023-07-02T08:15:49;16.50;;;6.07;;
81180;SDS011;70650;51.408;7.132;2023-07-02T08:18:15;17.17;;;6.60;;
81180;SDS011;70650;51.408;7.132;2023-07-02T08:20:40;17.33;;;6.20;;
81180;SDS011;70650;51.408;7.132;2023-07-02T08:23:05;17.73;;;6.27;;
81180;SDS011;70650;51.408;7.132;2023-07-02T08:25:30;17.50;;;6.40;;
81180;SDS011;70650;51.408;7.132;2023-07-02T08:27:56;16.73;;;6.38;;
81180;SDS011;70650;51.408;7.132;2023-07-02T08:30:23;18.58;;;6.78;;
81180;SDS011;70650;51.408;7.132;2023-07-02T08:32:48;19.27;;;5.90;;
81180;SDS011;70650;51.408;7.132;2023-07-02T08:35:13;15.67;;;5.70;;
81180;SDS011;70650;51.408;7.132;2023-07-02T08:37:39;14.23;;;5.20;;
81180;SDS011;70650;51.408;7.132;2023-07-02T08:40:04;12.57;;;4.83;;
81180;SDS011;70650;51.408;7.132;2023-07-02T08:42:33;12.82;;;4.97;;
81180;SDS011;70650;51.408;7.132;2023-07-02T08:44:59;16.58;;;5.45;;
81180;SDS011;70650;51.408;7.132;2023-07-02T08:47:26;13.55;;;4.90;;
81180;SDS011;70650;51.408;7.132;2023-07-02T08:49:52;12.48;;;4.38;;
81180;SDS011;70650;51.408;7.132;2023-07-02T08:52:18;12.43;;;4.05;;
81180;SDS011;70650;51.408;7.132;2023-07-02T08:54:44;13.23;;;4.70;;
81180;SDS011;70650;51.408;7.132;2023-07-02T08:57:10;11.23;;;4.20;;
81180;SDS011;70650;51.408;7.132;2023-07-02T08:59:35;13.70;;;4.10;;
81180;SDS011;70650;51.408;7.132;2023-07-02T09:02:01;15.57;;;4.57;;
81180;SDS011;70650;51.408;7.132;2023-07-02T09:04:27;11.82;;;4.60;;
81180;SDS011;70650;51.408;7.132;2023-07-02T09:07:06;11.48;;;4.13;;
81180;SDS011;70650;51.408;7.132;2023-07-02T09:09:33;14.90;;;4.32;;
81180;SDS011;70650;51.408;7.132;2023-07-02T09:12:10;14.23;;;4.85;;
81180;SDS011;70650;51.408;7.132;2023-07-02T09:14:35;15.87;;;4.70;;
81180;SDS011;70650;51.408;7.132;2023-07-02T09:17:08;15.33;;;5.03;;
81180;SDS011;70650;51.408;7.132;2023-07-02T09:19:34;12.27;;;4.22;;
81180;SDS011;70650;51.408;7.132;2023-07-02T09:22:14;13.07;;;4.18;;
81180;SDS011;70650;51.408;7.132;2023-07-02T09:24:40;11.45;;;4.10;;
81180;SDS011;70650;51.408;7.132;2023-07-02T09:27:06;12.83;;;4.27;;
81180;SDS011;70650;51.408;7.132;2023-07-02T09:29:31;13.17;;;3.90;;
81180;SDS011;70650;51.408;7.132;2023-07-02T09:32:02;11.40;;;4.07;;
81180;SDS011;70650;51.408;7.132;2023-07-02T09:34:32;14.15;;;3.60;;
81180;SDS011;70650;51.408;7.132;2023-07-02T09:37:02;13.57;;;4.32;;
81180;SDS011;70650;51.408;7.132;2023-07-02T09:39:30;11.38;;;3.88;;
81180;SDS011;70650;51.408;7.132;2023-07-02T09:41:58;14.88;;;5.07;;
81180;SDS011;70650;51.408;7.132;2023-07-02T09:44:27;13.82;;;4.32;;
81180;SDS011;70650;51.408;7.132;2023-07-02T09:47:03;14.50;;;4.47;;
81180;SDS011;70650;51.408;7.132;2023-07-02T09:49:43;12.52;;;4.53;;
81180;SDS011;70650;51.408;7.132;2023-07-02T09:52:14;15.50;;;4.93;;
81180;SDS011;70650;51.408;7.132;2023-07-02T09:54:41;14.27;;;4.47;;
81180;SDS011;70650;51.408;7.132;2023-07-02T09:57:06;15.85;;;5.10;;
81180;SDS011;70650;51.408;7.132;2023-07-02T09:59:32;13.25;;;4.53;;
81180;SDS011;70650;51.408;7.132;2023-07-02T10:01:57;14.70;;;5.30;;
81180;SDS011;70650;51.408;7.132;2023-07-02T10:04:23;15.15;;;5.70;;
81180;SDS011;70650;51.408;7.132;2023-07-02T10:06:53;14.77;;;5.05;;
81180;SDS011;70650;51.408;7.132;2023-07-02T10:09:20;11.93;;;4.78;;
81180;SDS011;70650;51.408;7.132;2023-07-02T10:11:58;13.48;;;4.93;;
81180;SDS011;70650;51.408;7.132;2023-07-02T10:14:24;15.73;;;5.57;;
81180;SDS011;70650;51.408;7.132;2023-07-02T10:19:15;13.55;;;5.05;;
81180;SDS011;70650;51.408;7.132;2023-07-02T10:21:41;13.00;;;4.35;;
81180;SDS011;70650;51.408;7.132;2023-07-02T10:24:10;14.07;;;4.25;;
81180;SDS011;70650;51.408;7.132;2023-07-02T10:26:37;15.95;;;5.20;;
81180;SDS011;70650;51.408;7.132;2023-07-02T10:29:02;14.73;;;5.05;;
81180;SDS011;70650;51.408;7.132;2023-07-02T10:31:27;13.77;;;4.90;;
81180;SDS011;70650;51.408;7.132;2023-07-02T10:33:54;10.70;;;4.80;;
81180;SDS011;70650;51.408;7.132;2023-07-02T10:36:20;15.60;;;4.90;;
81180;SDS011;70650;51.408;7.132;2023-07-02T10:38:46;13.90;;;4.95;;
81180;SDS011;70650;51.408;7.132;2023-07-02T10:41:12;14.30;;;4.95;;
81180;SDS011;70650;51.408;7.132;2023-07-02T10:43:37;13.75;;;5.60;;
81180;SDS011;70650;51.408;7.132;2023-07-02T10:46:03;16.13;;;6.03;;
81180;SDS011;70650;51.408;7.132;2023-07-02T10:48:30;14.38;;;5.35;;
81180;SDS011;70650;51.408;7.132;2023-07-02T10:50:55;18.90;;;5.53;;
81180;SDS011;70650;51.408;7.132;2023-07-02T10:53:21;11.00;;;4.78;;
81180;SDS011;70650;51.408;7.132;2023-07-02T10:55:53;14.32;;;5.22;;
81180;SDS011;70650;51.408;7.132;2023-07-02T10:58:20;14.60;;;5.13;;
81180;SDS011;70650;51.408;7.132;2023-07-02T11:00:49;16.48;;;5.28;;
81180;SDS011;70650;51.408;7.132;2023-07-02T11:03:19;14.60;;;5.20;;
81180;SDS011;70650;51.408;7.132;2023-07-02T11:05:49;15.77;;;5.13;;
81180;SDS011;70650;51.408;7.132;2023-07-02T11:08:15;13.52;;;4.53;;
81180;SDS011;70650;51.408;7.132;2023-07-02T11:10:41;12.52;;;4.45;;
81180;SDS011;70650;51.408;7.132;2023-07-02T11:13:14;13.95;;;4.97;;
81180;SDS011;70650;51.408;7.132;2023-07-02T11:15:43;13.30;;;4.85;;
81180;SDS011;70650;51.408;7.132;2023-07-02T11:18:13;13.02;;;4.60;;
81180;SDS011;70650;51.408;7.132;2023-07-02T11:20:40;14.50;;;5.72;;
81180;SDS011;70650;51.408;7.132;2023-07-02T11:23:25;15.95;;;5.00;;
81180;SDS011;70650;51.408;7.132;2023-07-02T11:25:58;16.02;;;5.05;;
81180;SDS011;70650;51.408;7.132;2023-07-02T11:28:26;11.82;;;4.05;;
81180;SDS011;70650;51.408;7.132;2023-07-02T11:30:53;12.35;;;4.10;;
81180;SDS011;70650;51.408;7.132;2023-07-02T11:33:20;12.48;;;4.63;;
81180;SDS011;70650;51.408;7.132;2023-07-02T11:35:56;11.30;;;4.13;;
81180;SDS011;70650;51.408;7.132;2023-07-02T11:38:22;12.88;;;4.25;;
81180;SDS011;70650;51.408;7.132;2023-07-02T11:40:47;12.57;;;3.80;;
81180;SDS011;70650;51.408;7.132;2023-07-02T11:43:13;12.02;;;3.65;;
81180;SDS011;70650;51.408;7.132;2023-07-02T11:45:38;13.20;;;4.57;;
81180;SDS011;70650;51.408;7.132;2023-07-02T11:48:04;13.77;;;4.40;;
81180;SDS011;70650;51.408;7.132;2023-07-02T11:50:29;25.57;;;4.57;;
81180;SDS011;70650;51.408;7.132;2023-07-02T11:52:55;11.10;;;3.97;;
81180;SDS011;70650;51.408;7.132;2023-07-02T11:55:20;13.57;;;3.78;;
81180;SDS011;70650;51.408;7.132;2023-07-02T11:57:46;11.32;;;4.28;;
81180;SDS011;70650;51.408;7.132;2023-07-02T12:00:14;13.50;;;4.57;;
81180;SDS011;70650;51.408;7.132;2023-07-02T12:02:39;13.05;;;4.50;;
81180;SDS011;70650;51.408;7.132;2023-07-02T12:05:05;12.77;;;3.70;;
81180;SDS011;70650;51.408;7.132;2023-07-02T12:07:30;12.27;;;4.30;;
81180;SDS011;70650;51.408;7.132;2023-07-02T12:09:55;11.17;;;3.87;;
81180;SDS011;70650;51.408;7.132;2023-07-02T12:12:21;12.57;;;4.00;;
81180;SDS011;70650;51.408;7.132;2023-07-02T12:14:46;10.63;;;3.70;;
81180;SDS011;70650;51.408;7.132;2023-07-02T12:17:12;13.40;;;3.53;;
81180;SDS011;70650;51.408;7.132;2023-07-02T12:19:37;11.02;;;3.30;;
81180;SDS011;70650;51.408;7.132;2023-07-02T12:22:06;11.27;;;4.07;;
81180;SDS011;70650;51.408;7.132;2023-07-02T12:24:31;11.13;;;3.78;;
81180;SDS011;70650;51.408;7.132;2023-07-02T12:26:57;14.47;;;4.00;;
81180;SDS011;70650;51.408;7.132;2023-07-02T12:29:23;9.50;;;3.50;;
81180;SDS011;70650;51.408;7.132;2023-07-02T12:31:48;10.15;;;4.05;;
81180;SDS011;70650;51.408;7.132;2023-07-02T12:34:14;12.53;;;3.40;;
81180;SDS011;70650;51.408;7.132;2023-07-02T12:36:40;11.63;;;3.85;;
81180;SDS011;70650;51.408;7.132;2023-07-02T12:39:05;12.73;;;3.70;;
81180;SDS011;70650;51.408;7.132;2023-07-02T12:41:32;11.38;;;3.60;;
81180;SDS011;70650;51.408;7.132;2023-07-02T12:43:58;10.82;;;3.97;;
81180;SDS011;70650;51.408;7.132;2023-07-02T12:46:23;12.57;;;3.50;;
81180;SDS011;70650;51.408;7.132;2023-07-02T12:48:49;12.93;;;3.63;;
81180;SDS011;70650;51.408;7.132;2023-07-02T12:51:14;11.07;;;3.93;;
81180;SDS011;70650;51.408;7.132;2023-07-02T12:53:39;10.03;;;3.60;;
81180;SDS011;70650;51.408;7.132;2023-07-02T12:56:05;11.65;;;5.00;;
81180;SDS011;70650;51.408;7.132;2023-07-02T12:58:30;12.73;;;4.45;;
81180;SDS011;70650;51.408;7.132;2023-07-02T13:00:55;11.60;;;4.40;;
81180;SDS011;70650;51.408;7.132;2023-07-02T13:03:21;10.93;;;3.97;;
81180;SDS011;70650;51.408;7.132;2023-07-02T13:05:48;12.20;;;4.43;;
81180;SDS011;70650;51.408;7.132;2023-07-02T13:08:13;14.02;;;4.85;;
81180;SDS011;70650;51.408;7.132;2023-07-02T13:10:39;10.68;;;4.55;;
81180;SDS011;70650;51.408;7.132;2023-07-02T13:13:04;11.40;;;4.35;;
81180;SDS011;70650;51.408;7.132;2023-07-02T13:15:30;14.30;;;4.78;;
81180;SDS011;70650;51.408;7.132;2023-07-02T13:17:55;12.50;;;4.37;;
81180;SDS011;70650;51.408;7.132;2023-07-02T13:20:20;14.73;;;4.50;;
81180;SDS011;70650;51.408;7.132;2023-07-02T13:22:46;9.73;;;4.40;;
81180;SDS011;70650;51.408;7.132;2023-07-02T13:25:11;12.43;;;4.63;;
81180;SDS011;70650;51.408;7.132;2023-07-02T13:27:36;12.57;;;4.63;;
81180;SDS011;70650;51.408;7.132;2023-07-02T13:30:02;14.25;;;4.90;;
81180;SDS011;70650;51.408;7.132;2023-07-02T13:32:28;14.48;;;5.35;;
81180;SDS011;70650;51.408;7.132;2023-07-02T13:34:53;11.93;;;4.60;;
81180;SDS011;70650;51.408;7.132;2023-07-02T13:37:18;11.43;;;4.63;;
81180;SDS011;70650;51.408;7.132;2023-07-02T13:39:44;12.63;;;5.18;;
81180;SDS011;70650;51.408;7.132;2023-07-02T13:42:10;13.55;;;5.03;;
81180;SDS011;70650;51.408;7.132;2023-07-02T13:44:35;11.33;;;4.33;;
81180;SDS011;70650;51.408;7.132;2023-07-02T13:47:01;12.20;;;4.63;;
81180;SDS011;70650;51.408;7.132;2023-07-02T13:49:26;14.50;;;5.07;;
81180;SDS011;70650;51.408;7.132;2023-07-02T13:51:51;12.00;;;4.37;;
81180;SDS011;70650;51.408;7.132;2023-07-02T13:54:17;12.80;;;4.83;;
81180;SDS011;70650;51.408;7.132;2023-07-02T13:56:43;13.50;;;4.50;;
81180;SDS011;70650;51.408;7.132;2023-07-02T13:59:09;13.15;;;4.75;;
81180;SDS011;70650;51.408;7.132;2023-07-02T14:01:34;13.47;;;5.03;;
81180;SDS011;70650;51.408;7.132;2023-07-02T14:04:00;15.73;;;5.27;;
81180;SDS011;70650;51.408;7.132;2023-07-02T14:06:27;14.60;;;4.68;;
81180;SDS011;70650;51.408;7.132;2023-07-02T14:08:52;16.52;;;5.18;;
81180;SDS011;70650;51.408;7.132;2023-07-02T14:11:18;12.77;;;5.63;;
81180;SDS011;70650;51.408;7.132;2023-07-02T14:13:44;13.18;;;4.72;;
81180;SDS011;70650;51.408;7.132;2023-07-02T14:16:09;13.90;;;4.73;;
81180;SDS011;70650;51.408;7.132;2023-07-02T14:18:34;16.90;;;5.60;;
81180;SDS011;70650;51.408;7.132;2023-07-02T14:21:00;15.77;;;4.90;;
81180;SDS011;70650;51.408;7.132;2023-07-02T14:23:26;12.73;;;4.90;;
81180;SDS011;70650;51.408;7.132;2023-07-02T14:25:51;15.13;;;5.30;;
81180;SDS011;70650;51.408;7.132;2023-07-02T14:28:17;14.00;;;4.73;;
81180;SDS011;70650;51.408;7.132;2023-07-02T14:30:42;12.30;;;4.77;;
81180;SDS011;70650;51.408;7.132;2023-07-02T14:33:08;15.05;;;5.50;;
81180;SDS011;70650;51.408;7.132;2023-07-02T14:35:33;14.40;;;4.50;;